Weather at Wilandra Airport

Public forecast

Using degrees Celsius for public forecast. Weather courtesy of forecast.io.

Closest aviation weather report (METAR) to Wilandra Airport

Closest report is Broken Hill Airport, 74.8 nm (138.5 km) SW. Retrieved 2021/06/23 02:00 UTC (1 hour ago):

YBHI 230200Z AUTO 34015KT 9999 // SCT058 BKN073 OVC082 15/09 Q1015

Closest aviation forecast (TAF) to Wilandra Airport

Forecast is more than 12 hours old.

Closest forecast is Whyalla Airport, 282.7 nm (523.6 km) WSW. Retrieved 2018/11/15 18:03 UTC (3 years ago):

TAF YWHA 151701Z 1518/1608 VRB05KT CAVOK FM152300 18012KT CAVOK FM160200 18018KT CAVOK